Time;durP1;ratioP1;P1;durP2;ratioP2;P2;SDS_P1;SDS_P2;PMS_P1;PMS_P2;Temp;Humidity;BMP_temperature;BMP_pressure;BME280_temperature;BME280_humidity;BME280_pressure;Samples;Min_cycle;Max_cycle;Signal;HPM_P1;HPM_P2
2022/11/07 00:02:22;;;;;;;12.73;6.85;;;10.40;99.90;;;;;;5146033;27;20031;-49
2022/11/07 00:04:48;;;;;;;13.85;6.88;;;10.60;99.90;;;;;;5133475;27;20039;-49
2022/11/07 00:07:15;;;;;;;15.00;6.90;;;10.70;99.90;;;;;;5134177;27;20458;-49
2022/11/07 00:09:40;;;;;;;12.85;6.15;;;10.60;99.90;;;;;;5132076;27;20066;-48
2022/11/07 00:12:06;;;;;;;11.77;6.45;;;10.50;99.90;;;;;;5131870;27;20525;-49
2022/11/07 00:14:32;;;;;;;9.95;6.50;;;10.60;99.90;;;;;;5131098;27;20043;-47
2022/11/07 00:16:58;;;;;;;11.07;6.72;;;10.60;99.90;;;;;;5130492;27;20035;-49
2022/11/07 00:19:23;;;;;;;11.48;6.68;;;10.70;99.90;;;;;;5146399;27;20026;-49
2022/11/07 00:21:49;;;;;;;13.43;6.50;;;10.70;99.90;;;;;;5133125;27;20042;-47
2022/11/07 00:24:16;;;;;;;12.63;6.55;;;10.60;99.90;;;;;;5097553;27;20027;-47
2022/11/07 00:26:43;;;;;;;11.95;6.13;;;10.70;99.90;;;;;;5142154;27;20032;-48
2022/11/07 00:29:13;;;;;;;13.27;6.80;;;10.80;99.90;;;;;;5142097;27;20113;-48
2022/11/07 00:31:38;;;;;;;11.25;6.10;;;10.70;99.90;;;;;;5143930;27;20396;-48
2022/11/07 00:34:04;;;;;;;13.05;6.05;;;10.60;99.90;;;;;;5135085;27;20039;-48
2022/11/07 00:36:30;;;;;;;13.23;6.25;;;10.50;99.90;;;;;;5131386;27;20386;-47
2022/11/07 00:38:56;;;;;;;11.45;6.50;;;10.50;99.90;;;;;;5135902;27;20026;-48
2022/11/07 00:41:22;;;;;;;16.23;6.30;;;10.20;99.90;;;;;;5133650;27;20035;-48
2022/11/07 00:43:48;;;;;;;9.88;6.05;;;10.40;99.90;;;;;;5133061;27;20050;-47
2022/11/07 00:46:16;;;;;;;13.20;6.43;;;10.50;99.90;;;;;;5134915;27;20107;-48
2022/11/07 00:48:41;;;;;;;12.68;6.28;;;10.40;99.90;;;;;;5147539;27;20049;-48
2022/11/07 00:51:13;;;;;;;11.13;6.53;;;10.50;99.90;;;;;;5136706;27;20122;-48
2022/11/07 00:53:39;;;;;;;15.77;6.35;;;10.40;99.90;;;;;;5133667;27;20084;-49
2022/11/07 00:56:08;;;;;;;16.30;6.00;;;10.50;99.90;;;;;;5116713;27;20063;-48
2022/11/07 00:58:34;;;;;;;12.18;5.85;;;10.60;99.90;;;;;;5129321;27;20027;-50
2022/11/07 01:01:07;;;;;;;8.70;5.53;;;10.70;99.90;;;;;;5134031;27;20039;-48
2022/11/07 01:06:17;;;;;;;14.55;6.50;;;10.70;99.90;;;;;;5121632;27;20078;-48
2022/11/07 01:08:43;;;;;;;13.57;6.07;;;10.60;99.90;;;;;;5130272;27;20070;-51
2022/11/07 01:11:09;;;;;;;13.90;6.13;;;10.80;99.90;;;;;;5135302;27;20039;-49
2022/11/07 01:13:35;;;;;;;12.80;6.35;;;10.70;99.90;;;;;;5133165;27;20031;-48
2022/11/07 01:16:01;;;;;;;12.65;6.35;;;10.70;99.90;;;;;;5140487;27;20084;-48
2022/11/07 01:18:27;;;;;;;14.88;6.50;;;10.70;99.90;;;;;;5137363;27;20035;-48
2022/11/07 01:20:53;;;;;;;16.55;5.85;;;10.70;99.90;;;;;;5134960;27;20043;-47
2022/11/07 01:23:21;;;;;;;14.20;5.88;;;10.80;99.90;;;;;;5148156;27;20380;-48
2022/11/07 01:25:46;;;;;;;16.85;6.50;;;10.80;99.90;;;;;;5136951;27;20054;-47
2022/11/07 01:28:12;;;;;;;12.88;6.00;;;11.00;99.90;;;;;;5143782;27;20393;-48
2022/11/07 01:30:39;;;;;;;16.10;6.13;;;10.90;99.90;;;;;;5133219;27;20065;-51
2022/11/07 01:33:05;;;;;;;12.13;5.90;;;11.00;99.90;;;;;;5140809;27;20054;-50
2022/11/07 01:35:32;;;;;;;11.00;5.82;;;10.80;99.90;;;;;;5150589;27;20027;-49
2022/11/07 01:37:57;;;;;;;10.18;5.55;;;11.10;99.90;;;;;;5136123;27;20224;-48
2022/11/07 01:40:23;;;;;;;12.32;6.00;;;11.00;99.90;;;;;;5133471;27;20031;-48
2022/11/07 01:42:49;;;;;;;12.55;5.57;;;10.90;99.90;;;;;;5150912;27;20054;-48
2022/11/07 01:45:27;;;;;;;13.70;5.90;;;10.90;99.90;;;;;;5138992;27;20486;-50
2022/11/07 01:47:57;;;;;;;9.70;5.22;;;11.00;99.90;;;;;;5136668;27;20047;-48
2022/11/07 01:50:22;;;;;;;11.18;5.57;;;11.10;99.90;;;;;;5142875;27;20105;-49
2022/11/07 01:52:51;;;;;;;13.20;5.22;;;10.90;99.90;;;;;;5133416;27;20050;-50
2022/11/07 01:55:24;;;;;;;11.82;5.20;;;11.00;99.90;;;;;;5133134;27;20042;-50
2022/11/07 01:57:54;;;;;;;11.18;4.63;;;11.10;99.90;;;;;;5141585;27;20049;-48
2022/11/07 02:00:22;;;;;;;11.25;4.70;;;10.90;99.90;;;;;;5118203;27;20126;-49
2022/11/07 02:02:52;;;;;;;12.90;5.07;;;11.00;99.90;;;;;;5145606;27;20053;-48
2022/11/07 02:05:33;;;;;;;16.95;5.20;;;11.00;99.90;;;;;;5134938;27;20043;-49
2022/11/07 02:08:01;;;;;;;12.50;5.05;;;10.90;99.90;;;;;;5144637;27;20079;-48
2022/11/07 02:10:28;;;;;;;15.13;5.55;;;11.00;99.90;;;;;;5121512;27;20034;-49
2022/11/07 02:12:57;;;;;;;12.85;5.47;;;11.00;99.90;;;;;;5147479;27;20042;-50
2022/11/07 02:15:25;;;;;;;12.27;5.30;;;11.00;99.90;;;;;;5142455;27;20031;-47
2022/11/07 02:17:52;;;;;;;13.60;5.65;;;11.00;99.90;;;;;;5138723;27;20080;-48
2022/11/07 02:20:17;;;;;;;13.63;5.85;;;11.10;99.90;;;;;;5145933;27;20416;-48
2022/11/07 02:23:04;;;;;;;11.20;5.53;;;11.00;99.90;;;;;;5137177;27;20141;-48
2022/11/07 02:25:30;;;;;;;15.25;5.03;;;11.10;99.90;;;;;;5133216;27;20035;-48
2022/11/07 02:27:58;;;;;;;15.32;5.72;;;10.90;99.90;;;;;;5153540;27;20469;-49
2022/11/07 02:30:27;;;;;;;10.20;5.50;;;11.00;99.90;;;;;;5132169;27;20039;-48
2022/11/07 02:32:53;;;;;;;10.25;5.78;;;11.00;99.90;;;;;;5136753;27;20505;-48
2022/11/07 02:35:36;;;;;;;9.88;6.40;;;11.00;99.90;;;;;;5146702;27;20066;-50
2022/11/07 02:38:05;;;;;;;;;;;10.90;99.90;;;;;;5138153;27;20070;-48
2022/11/07 02:40:32;;;;;;;14.75;5.05;;;11.00;99.90;;;;;;5133072;27;20406;-48
2022/11/07 02:42:59;;;;;;;14.32;6.28;;;11.00;99.90;;;;;;5132993;27;20058;-48
2022/11/07 02:45:28;;;;;;;12.60;5.22;;;10.80;99.90;;;;;;5133916;27;20066;-48
2022/11/07 02:47:54;;;;;;;16.27;5.55;;;10.90;99.90;;;;;;5145614;27;20040;-48
2022/11/07 02:50:20;;;;;;;13.30;5.43;;;10.90;99.90;;;;;;5139140;27;20095;-47
2022/11/07 02:52:45;;;;;;;11.68;5.40;;;10.90;99.90;;;;;;5114796;27;20035;-50
2022/11/07 02:55:13;;;;;;;11.10;5.15;;;10.90;99.90;;;;;;5128350;27;20076;-52
2022/11/07 02:57:39;;;;;;;12.60;5.50;;;10.80;99.90;;;;;;5151253;27;20045;-48
2022/11/07 03:00:07;;;;;;;16.08;4.93;;;10.80;99.90;;;;;;5132489;27;20031;-49
2022/11/07 03:02:33;;;;;;;16.85;5.32;;;10.90;99.90;;;;;;5144331;27;20400;-47
2022/11/07 03:04:58;;;;;;;18.83;5.47;;;10.80;99.90;;;;;;5136340;27;21322;-49
2022/11/07 03:07:24;;;;;;;13.32;4.90;;;11.20;99.90;;;;;;5144370;27;20050;-49
2022/11/07 03:09:50;;;;;;;13.38;5.22;;;10.70;99.90;;;;;;5140772;27;20381;-47
2022/11/07 03:12:16;;;;;;;14.82;5.22;;;10.80;99.90;;;;;;5143644;27;20042;-49
2022/11/07 03:14:41;;;;;;;14.73;5.13;;;10.90;99.90;;;;;;5131491;27;20031;-48
2022/11/07 03:17:07;;;;;;;16.38;5.30;;;10.90;99.90;;;;;;5105542;27;20043;-48
2022/11/07 03:19:33;;;;;;;13.52;5.30;;;10.70;99.90;;;;;;5140310;27;20035;-49
2022/11/07 03:21:59;;;;;;;14.10;6.03;;;10.70;99.90;;;;;;5141498;27;20523;-49
2022/11/07 03:24:24;;;;;;;19.40;5.68;;;11.00;99.90;;;;;;5133772;27;20035;-49
2022/11/07 03:26:50;;;;;;;13.30;5.97;;;10.70;99.90;;;;;;5137509;27;20496;-48
2022/11/07 03:29:16;;;;;;;11.82;5.57;;;10.80;99.90;;;;;;5139318;27;20041;-48
2022/11/07 03:31:41;;;;;;;13.73;5.30;;;10.70;99.90;;;;;;5135523;27;20070;-49
2022/11/07 03:34:07;;;;;;;12.65;5.70;;;10.70;99.90;;;;;;5135606;27;20491;-49
2022/11/07 03:36:33;;;;;;;13.50;6.13;;;10.80;99.90;;;;;;5132881;27;20039;-48
2022/11/07 03:38:59;;;;;;;15.45;5.75;;;11.20;99.90;;;;;;5132120;27;20031;-48
2022/11/07 03:41:24;;;;;;;13.55;5.47;;;10.70;99.90;;;;;;5136581;27;20364;-49
2022/11/07 03:43:50;;;;;;;15.63;6.22;;;11.10;99.90;;;;;;5137297;27;20150;-49
2022/11/07 03:46:16;;;;;;;12.88;5.13;;;10.90;99.90;;;;;;5135558;27;20091;-48
2022/11/07 03:48:42;;;;;;;17.50;5.88;;;10.70;99.90;;;;;;5133267;27;20392;-47
2022/11/07 03:51:08;;;;;;;14.02;5.82;;;10.60;99.90;;;;;;5136211;27;20093;-49
2022/11/07 03:53:35;;;;;;;14.00;6.13;;;10.80;99.90;;;;;;5130752;27;20035;-48
2022/11/07 03:56:09;;;;;;;14.02;6.53;;;10.70;99.90;;;;;;5134700;27;20066;-49
2022/11/07 03:58:35;;;;;;;18.70;6.13;;;10.60;99.90;;;;;;5136909;27;20038;-48
2022/11/07 04:01:02;;;;;;;11.63;5.40;;;10.40;99.90;;;;;;5143746;27;20110;-50
2022/11/07 04:03:27;;;;;;;14.38;5.55;;;10.60;99.90;;;;;;5146422;27;20434;-48
2022/11/07 04:05:53;;;;;;;12.40;5.70;;;10.60;99.90;;;;;;5142789;27;20062;-53
2022/11/07 04:08:19;;;;;;;16.75;5.80;;;10.70;99.90;;;;;;5139403;27;20045;-50
2022/11/07 04:10:45;;;;;;;14.05;5.93;;;10.90;99.90;;;;;;5143612;27;20031;-48
2022/11/07 04:18:39;;;;;;;;;;;10.70;99.90;;;;;;5149553;27;20106;-49
2022/11/07 04:21:05;;;;;;;16.58;6.10;;;10.60;99.90;;;;;;5133492;27;19915;-49
2022/11/07 04:23:31;;;;;;;10.95;5.60;;;10.40;99.90;;;;;;5140346;27;20038;-48
2022/11/07 04:28:41;;;;;;;13.95;7.05;;;10.60;99.90;;;;;;5135269;27;20070;-48
2022/11/07 04:31:06;;;;;;;14.43;6.53;;;10.50;99.90;;;;;;5131046;27;20063;-47
2022/11/07 04:33:32;;;;;;;17.70;6.78;;;10.30;99.90;;;;;;5125046;27;20049;-50
2022/11/07 04:35:57;;;;;;;13.07;6.55;;;10.30;99.90;;;;;;5144051;27;20074;-48
2022/11/07 04:38:23;;;;;;;15.10;6.07;;;10.30;99.90;;;;;;5137641;27;20019;-48
2022/11/07 04:40:56;;;;;;;16.85;6.80;;;10.50;99.90;;;;;;5143146;27;20039;-48
2022/11/07 04:43:23;;;;;;;13.50;6.18;;;10.40;99.90;;;;;;5148905;27;20045;-49
2022/11/07 04:45:49;;;;;;;17.38;6.07;;;10.40;99.90;;;;;;5141634;27;20081;-49
2022/11/07 04:48:15;;;;;;;15.07;6.10;;;10.40;99.90;;;;;;5138384;27;20846;-50
2022/11/07 04:50:41;;;;;;;17.55;7.07;;;10.30;99.90;;;;;;5135702;27;20385;-48
2022/11/07 04:53:10;;;;;;;15.70;5.80;;;10.30;99.90;;;;;;5142686;27;20031;-47
2022/11/07 04:55:35;;;;;;;16.20;5.45;;;10.30;99.90;;;;;;5140603;27;20042;-48
2022/11/07 04:58:01;;;;;;;18.02;5.65;;;10.40;99.90;;;;;;5132528;27;20453;-50
2022/11/07 05:00:27;;;;;;;16.05;6.07;;;10.30;99.90;;;;;;5136697;27;20039;-49
2022/11/07 05:02:52;;;;;;;13.73;5.70;;;10.20;99.90;;;;;;5148046;27;20090;-49
2022/11/07 05:05:18;;;;;;;11.30;5.75;;;10.40;99.90;;;;;;5136778;27;20054;-48
2022/11/07 05:07:45;;;;;;;11.68;5.30;;;10.40;99.90;;;;;;5143896;27;20046;-49
2022/11/07 05:10:18;;;;;;;13.30;5.85;;;10.30;99.90;;;;;;5140604;27;20035;-50
2022/11/07 05:12:44;;;;;;;9.50;5.28;;;10.40;99.90;;;;;;5141450;27;20076;-51
2022/11/07 05:15:10;;;;;;;14.20;5.80;;;10.30;99.90;;;;;;5149467;27;20476;-48
2022/11/07 05:17:36;;;;;;;13.75;5.68;;;10.30;99.90;;;;;;5147851;27;20031;-48
2022/11/07 05:20:02;;;;;;;13.70;5.25;;;10.40;99.90;;;;;;5141424;27;20042;-48
2022/11/07 05:25:11;;;;;;;14.25;4.80;;;10.60;99.90;;;;;;5137522;27;20039;-51
2022/11/07 05:27:37;;;;;;;17.90;5.20;;;10.50;99.90;;;;;;5141170;27;20236;-51
2022/11/07 05:30:04;;;;;;;11.00;4.70;;;10.80;99.90;;;;;;5153288;27;20042;-48
2022/11/07 05:32:30;;;;;;;15.70;5.35;;;10.60;99.90;;;;;;5143398;27;20062;-50
2022/11/07 05:34:55;;;;;;;14.55;4.85;;;10.60;99.90;;;;;;5142370;27;20517;-48
2022/11/07 05:37:21;;;;;;;15.50;5.40;;;11.10;99.90;;;;;;5124347;27;20031;-51
2022/11/07 05:39:47;;;;;;;15.75;5.75;;;10.60;99.90;;;;;;5124469;27;20027;-51
2022/11/07 05:42:12;;;;;;;16.08;5.47;;;10.80;99.90;;;;;;5149865;27;20598;-51
2022/11/07 05:44:38;;;;;;;16.75;6.07;;;10.70;99.90;;;;;;5133016;27;20058;-49
2022/11/07 05:47:03;;;;;;;14.70;5.63;;;11.20;99.90;;;;;;5142913;27;20493;-51
2022/11/07 05:49:29;;;;;;;16.65;6.30;;;10.60;99.90;;;;;;5133799;27;20116;-49
2022/11/07 05:51:56;;;;;;;16.50;5.95;;;10.60;99.90;;;;;;5147499;27;20038;-50
2022/11/07 05:54:23;;;;;;;17.27;6.78;;;10.80;99.90;;;;;;5136403;27;20118;-49
2022/11/07 05:56:49;;;;;;;17.17;6.82;;;10.60;99.90;;;;;;5134443;27;20467;-49
2022/11/07 05:59:14;;;;;;;14.32;6.55;;;10.80;99.90;;;;;;5139370;27;20160;-51
2022/11/07 06:01:40;;;;;;;18.23;7.90;;;10.90;99.90;;;;;;5134275;27;20035;-48
2022/11/07 06:04:07;;;;;;;21.08;7.55;;;10.50;99.90;;;;;;5131313;27;20061;-49
2022/11/07 06:06:33;;;;;;;15.05;8.13;;;10.70;99.90;;;;;;5142858;27;20374;-50
2022/11/07 06:08:58;;;;;;;20.17;7.20;;;10.50;99.90;;;;;;5136508;27;20043;-50
2022/11/07 06:11:24;;;;;;;21.33;8.50;;;10.40;99.90;;;;;;5139333;27;20050;-50
2022/11/07 06:13:51;;;;;;;21.85;7.95;;;10.60;99.90;;;;;;5139605;27;20062;-48
2022/11/07 06:16:17;;;;;;;18.45;7.47;;;10.50;99.90;;;;;;5143610;27;20102;-48
2022/11/07 06:18:42;;;;;;;17.00;7.32;;;10.70;99.90;;;;;;5142490;27;20027;-50
2022/11/07 06:21:08;;;;;;;20.92;8.10;;;10.50;99.90;;;;;;5137312;27;20031;-50
2022/11/07 06:23:34;;;;;;;17.73;6.90;;;10.70;99.90;;;;;;5133739;27;20066;-49
2022/11/07 06:25:59;;;;;;;20.30;8.20;;;10.60;99.90;;;;;;5140312;27;20035;-48
2022/11/07 06:28:25;;;;;;;17.45;8.05;;;10.50;99.90;;;;;;5141924;27;20099;-48
2022/11/07 06:30:51;;;;;;;19.27;7.60;;;10.80;99.90;;;;;;5136623;27;20066;-48
2022/11/07 06:33:18;;;;;;;22.55;8.27;;;10.60;99.90;;;;;;5140973;27;20055;-50
2022/11/07 06:35:45;;;;;;;17.85;7.60;;;10.90;99.90;;;;;;5122356;27;20051;-50
2022/11/07 06:38:12;;;;;;;24.25;7.95;;;10.60;99.90;;;;;;5143931;27;20031;-48
2022/11/07 06:40:39;;;;;;;14.60;8.00;;;10.60;99.90;;;;;;5151326;27;20086;-48
2022/11/07 06:43:14;;;;;;;19.73;8.73;;;10.80;99.90;;;;;;5133549;27;20083;-49
2022/11/07 06:45:41;;;;;;;21.40;7.65;;;10.80;99.90;;;;;;5148641;27;20134;-48
2022/11/07 06:48:07;;;;;;;19.15;8.07;;;10.70;99.90;;;;;;5142220;27;20115;-47
2022/11/07 06:50:34;;;;;;;17.15;8.68;;;10.70;99.90;;;;;;5138906;27;20047;-50
2022/11/07 06:53:05;;;;;;;18.58;7.60;;;10.80;99.90;;;;;;5121242;27;20483;-49
2022/11/07 06:55:32;;;;;;;22.27;8.32;;;11.00;99.90;;;;;;5126950;27;20047;-48
2022/11/07 06:57:59;;;;;;;22.30;8.77;;;10.90;99.90;;;;;;5143917;27;20035;-52
2022/11/07 07:00:26;;;;;;;19.67;7.90;;;10.80;99.90;;;;;;5141017;27;20045;-49
2022/11/07 07:02:52;;;;;;;14.73;7.32;;;11.00;99.90;;;;;;5141902;27;20071;-49
2022/11/07 07:05:17;;;;;;;18.77;7.65;;;11.00;99.90;;;;;;5141893;27;20130;-49
2022/11/07 07:07:43;;;;;;;18.33;8.05;;;11.00;99.90;;;;;;5118096;27;20043;-49
2022/11/07 07:10:09;;;;;;;18.77;7.75;;;11.00;99.90;;;;;;5144923;27;20043;-48
2022/11/07 07:12:34;;;;;;;20.45;7.75;;;10.90;99.90;;;;;;5134061;27;20039;-50
2022/11/07 07:15:00;;;;;;;19.33;8.85;;;11.00;99.90;;;;;;5119917;27;20023;-48
2022/11/07 07:17:25;;;;;;;20.90;7.28;;;11.00;99.90;;;;;;5138638;27;20043;-49
2022/11/07 07:19:51;;;;;;;16.63;7.35;;;11.10;99.90;;;;;;5138788;27;20031;-49
2022/11/07 07:22:17;;;;;;;17.65;6.20;;;11.20;99.90;;;;;;5142979;27;20087;-48
2022/11/07 07:24:43;;;;;;;14.52;7.13;;;11.20;99.90;;;;;;5138336;27;20030;-48
2022/11/07 07:27:09;;;;;;;13.27;5.80;;;11.30;99.90;;;;;;5139497;27;20389;-49
2022/11/07 07:29:35;;;;;;;14.48;6.28;;;11.30;99.90;;;;;;5123196;27;20092;-49
2022/11/07 07:32:00;;;;;;;21.50;6.57;;;11.30;99.90;;;;;;5140715;27;20039;-49
2022/11/07 07:34:26;;;;;;;16.15;6.50;;;11.30;99.90;;;;;;5138256;27;20045;-50
2022/11/07 07:36:55;;;;;;;16.13;6.57;;;11.50;99.90;;;;;;5139563;27;20089;-49
2022/11/07 07:39:20;;;;;;;18.17;6.40;;;11.40;99.90;;;;;;5142923;27;20038;-49
2022/11/07 07:41:48;;;;;;;21.00;6.68;;;11.40;99.90;;;;;;5139620;27;20031;-52
2022/11/07 07:44:13;;;;;;;20.63;6.65;;;11.30;99.90;;;;;;5132922;27;20374;-48
2022/11/07 07:46:39;;;;;;;17.70;7.13;;;11.50;99.90;;;;;;5134746;27;20051;-49
2022/11/07 07:49:05;;;;;;;13.45;6.25;;;11.40;99.90;;;;;;5103084;27;20038;-48
2022/11/07 07:51:30;;;;;;;20.60;6.82;;;11.40;99.90;;;;;;5140099;27;20050;-48
2022/11/07 07:53:56;;;;;;;17.48;6.50;;;11.60;99.90;;;;;;5141889;27;20466;-48
2022/11/07 07:56:22;;;;;;;20.33;6.55;;;11.50;99.90;;;;;;5141799;27;20227;-49
2022/11/07 07:58:47;;;;;;;16.85;6.40;;;11.60;99.90;;;;;;5139570;27;20038;-51
2022/11/07 08:01:13;;;;;;;15.23;5.75;;;11.50;99.90;;;;;;5136655;27;20117;-49
2022/11/07 08:03:38;;;;;;;22.38;6.43;;;11.60;99.90;;;;;;5129121;27;20035;-48
2022/11/07 08:06:04;;;;;;;18.67;5.35;;;11.50;99.90;;;;;;5129406;27;20397;-49
2022/11/07 08:08:31;;;;;;;20.30;5.80;;;11.70;99.90;;;;;;5129003;27;20039;-51
2022/11/07 08:11:06;;;;;;;23.33;5.88;;;11.70;99.90;;;;;;5137277;27;20621;-49
2022/11/07 08:13:32;;;;;;;21.30;5.70;;;11.80;99.90;;;;;;5129880;27;20031;-50
2022/11/07 08:15:57;;;;;;;16.25;5.25;;;11.70;99.90;;;;;;5126104;27;20061;-50
2022/11/07 08:18:23;;;;;;;16.27;4.43;;;11.70;99.90;;;;;;5107621;27;20043;-52
2022/11/07 08:20:53;;;;;;;22.00;5.57;;;11.80;99.90;;;;;;5123470;27;20031;-51
2022/11/07 08:23:19;;;;;;;14.63;5.13;;;11.70;99.90;;;;;;5125930;27;20115;-52
2022/11/07 08:25:54;;;;;;;12.52;5.63;;;11.60;99.90;;;;;;5126290;27;20062;-50
2022/11/07 08:28:21;;;;;;;17.67;5.07;;;11.70;99.90;;;;;;5127831;27;20046;-49
2022/11/07 08:31:02;;;;;;;17.77;5.80;;;11.80;99.90;;;;;;5131420;27;20061;-50
2022/11/07 08:33:28;;;;;;;18.48;5.75;;;11.90;99.90;;;;;;5119414;27;20474;-53
2022/11/07 08:36:00;;;;;;;15.10;4.90;;;11.90;99.90;;;;;;5120709;27;20031;-49
2022/11/07 08:38:31;;;;;;;16.15;4.72;;;11.90;99.90;;;;;;5101740;27;20115;-51
2022/11/07 08:40:57;;;;;;;14.38;4.57;;;12.00;99.90;;;;;;5120886;27;20035;-51
2022/11/07 08:43:23;;;;;;;15.52;5.03;;;11.90;99.90;;;;;;5120628;27;20537;-49
2022/11/07 08:45:49;;;;;;;13.32;3.95;;;11.90;99.90;;;;;;5121910;27;20110;-50
2022/11/07 08:48:16;;;;;;;12.95;4.32;;;12.10;99.90;;;;;;5121501;27;20134;-52
2022/11/07 08:50:42;;;;;;;13.07;4.22;;;12.00;99.90;;;;;;5104138;27;20039;-52
2022/11/07 08:53:09;;;;;;;13.10;4.40;;;12.10;99.90;;;;;;5121601;27;20035;-51
2022/11/07 08:55:35;;;;;;;13.40;4.38;;;12.10;99.90;;;;;;5121194;27;20490;-50
2022/11/07 08:58:04;;;;;;;13.57;4.30;;;12.20;99.90;;;;;;5122655;27;20367;-52
2022/11/07 09:00:30;;;;;;;13.85;4.75;;;12.10;99.90;;;;;;5122557;27;20425;-48
2022/11/07 09:02:59;;;;;;;15.00;4.75;;;12.30;99.90;;;;;;5121623;27;20531;-50
2022/11/07 09:05:25;;;;;;;17.85;4.50;;;12.40;99.90;;;;;;5120929;27;20065;-48
2022/11/07 09:07:50;;;;;;;14.98;4.15;;;12.40;99.90;;;;;;5106861;27;20047;-50
2022/11/07 09:10:16;;;;;;;14.93;4.57;;;12.40;99.90;;;;;;5120773;27;20039;-51
2022/11/07 09:12:46;;;;;;;16.52;4.47;;;12.30;99.90;;;;;;5123046;27;20597;-50
2022/11/07 09:15:13;;;;;;;12.80;3.88;;;12.50;99.90;;;;;;5121727;27;20049;-54
2022/11/07 09:17:39;;;;;;;11.45;4.18;;;12.60;99.90;;;;;;5121155;27;20039;-49
2022/11/07 09:20:05;;;;;;;14.02;4.60;;;12.70;99.90;;;;;;5119790;27;20032;-48
2022/11/07 09:22:31;;;;;;;11.77;4.28;;;12.50;99.90;;;;;;5123967;27;20039;-49
2022/11/07 09:24:57;;;;;;;12.25;3.78;;;12.60;99.90;;;;;;5122242;27;20039;-50
2022/11/07 09:27:22;;;;;;;14.88;4.47;;;13.00;99.90;;;;;;5117417;27;20046;-48
2022/11/07 09:29:48;;;;;;;13.50;4.75;;;12.60;99.90;;;;;;5119959;27;20430;-49
2022/11/07 09:32:14;;;;;;;17.35;5.25;;;12.40;99.90;;;;;;5103762;27;20043;-49
2022/11/07 09:34:39;;;;;;;10.20;5.00;;;12.40;99.90;;;;;;5122641;27;20035;-53
2022/11/07 09:37:05;;;;;;;10.98;4.78;;;12.40;99.90;;;;;;5121651;27;20049;-48
2022/11/07 09:39:31;;;;;;;13.55;4.85;;;12.40;99.90;;;;;;5125526;27;20050;-49
2022/11/07 09:42:02;;;;;;;14.32;5.28;;;12.50;99.90;;;;;;5104581;27;20047;-49
2022/11/07 09:44:37;;;;;;;13.13;5.20;;;12.40;99.90;;;;;;5121638;27;20066;-49
2022/11/07 09:47:41;;;;;;;15.93;5.68;;;12.60;99.90;;;;;;5124802;27;20030;-50
2022/11/07 09:50:28;;;;;;;15.52;5.78;;;12.60;99.90;;;;;;5104682;27;20679;-49
2022/11/07 09:53:13;;;;;;;11.20;4.40;;;12.60;99.90;;;;;;5124544;27;20075;-48
2022/11/07 09:55:58;;;;;;;14.60;4.93;;;12.70;99.90;;;;;;5122759;27;20063;-48
2022/11/07 09:58:32;;;;;;;15.63;4.28;;;12.80;99.90;;;;;;5124038;27;20035;-48
2022/11/07 10:01:02;;;;;;;20.13;5.40;;;12.90;99.90;;;;;;5123619;27;20106;-48
2022/11/07 10:03:28;;;;;;;16.15;4.80;;;12.90;99.90;;;;;;5122577;27;20039;-48
2022/11/07 10:06:00;;;;;;;14.40;4.65;;;12.90;99.90;;;;;;5120734;27;20027;-49
2022/11/07 10:08:44;;;;;;;14.20;4.78;;;13.00;99.90;;;;;;5126502;27;20504;-48
2022/11/07 10:11:25;;;;;;;18.23;4.85;;;13.10;99.90;;;;;;5121945;27;20057;-52
2022/11/07 10:14:04;;;;;;;9.82;3.88;;;13.40;99.90;;;;;;5119925;27;20130;-49
2022/11/07 10:16:49;;;;;;;12.35;4.43;;;13.20;99.90;;;;;;5118652;27;20452;-50
2022/11/07 10:19:45;;;;;;;11.43;3.95;;;13.30;99.90;;;;;;5115637;27;20316;-49
2022/11/07 10:22:21;;;;;;;14.52;4.72;;;13.20;99.90;;;;;;5124801;27;20151;-49
2022/11/07 10:25:20;;;;;;;15.43;4.72;;;13.50;99.90;;;;;;5120985;27;20066;-49
2022/11/07 10:28:18;;;;;;;17.27;4.43;;;13.40;99.90;;;;;;5123254;27;20034;-48
2022/11/07 10:30:47;;;;;;;15.77;4.38;;;13.60;99.90;;;;;;5129426;27;20035;-49
2022/11/07 10:33:23;;;;;;;12.18;4.00;;;13.70;99.90;;;;;;5129757;27;20035;-48
2022/11/07 10:35:55;;;;;;;15.20;4.40;;;13.70;99.90;;;;;;5123291;27;20385;-48
2022/11/07 10:38:29;;;;;;;12.02;3.67;;;13.70;99.90;;;;;;5126658;27;20027;-51
2022/11/07 10:40:55;;;;;;;10.40;3.83;;;13.80;99.90;;;;;;5111421;27;20039;-48
2022/11/07 10:43:38;;;;;;;10.52;3.83;;;13.80;99.90;;;;;;5123857;27;20124;-48
2022/11/07 10:46:17;;;;;;;13.77;3.63;;;13.70;99.90;;;;;;5134955;27;20067;-50
2022/11/07 10:48:58;;;;;;;14.43;4.28;;;13.80;99.90;;;;;;5125918;27;20114;-49
2022/11/07 10:51:43;;;;;;;14.02;3.83;;;13.90;99.90;;;;;;5115576;27;20043;-47
2022/11/07 10:54:24;;;;;;;14.13;3.70;;;13.80;99.90;;;;;;5130041;27;20553;-48
2022/11/07 10:57:21;;;;;;;12.13;2.95;;;13.90;99.90;;;;;;5133843;27;20139;-50
2022/11/07 10:59:56;;;;;;;13.98;3.22;;;13.90;99.90;;;;;;5123032;27;20044;-50
2022/11/07 11:02:26;;;;;;;15.45;3.60;;;14.00;99.90;;;;;;5134073;27;20394;-50
2022/11/07 11:04:53;;;;;;;14.05;3.40;;;14.20;99.90;;;;;;5143437;27;20465;-50
2022/11/07 11:07:19;;;;;;;16.63;4.03;;;14.40;99.90;;;;;;5140340;27;20444;-50
2022/11/07 11:09:54;;;;;;;12.40;3.28;;;14.50;99.90;;;;;;5141916;27;20037;-48
2022/11/07 11:12:26;;;;;;;14.25;3.63;;;14.50;99.90;;;;;;5141520;27;20031;-48
2022/11/07 11:15:09;;;;;;;13.57;3.50;;;14.40;99.90;;;;;;5143249;27;20069;-47
2022/11/07 11:17:35;;;;;;;10.55;3.28;;;14.40;99.90;;;;;;5146659;27;20438;-51
2022/11/07 11:20:01;;;;;;;8.98;2.97;;;14.40;99.90;;;;;;5138052;27;20035;-49
2022/11/07 11:22:28;;;;;;;14.40;3.47;;;14.40;99.90;;;;;;5125576;27;20031;-53
2022/11/07 11:25:15;;;;;;;16.38;4.55;;;14.40;99.90;;;;;;5133785;27;20042;-48
2022/11/07 11:27:41;;;;;;;11.73;3.95;;;14.30;99.90;;;;;;5144793;27;20519;-47
2022/11/07 11:30:20;;;;;;;10.02;3.67;;;14.30;99.90;;;;;;5139993;27;20095;-49
2022/11/07 11:32:51;;;;;;;10.27;3.13;;;14.30;99.90;;;;;;5133211;27;20068;-48
2022/11/07 11:35:43;;;;;;;11.88;3.72;;;14.40;99.90;;;;;;5130228;27;20448;-49
2022/11/07 11:38:36;;;;;;;11.75;3.80;;;14.30;99.90;;;;;;5128607;27;20047;-48
2022/11/07 11:41:26;;;;;;;11.95;3.45;;;14.30;99.90;;;;;;5135683;27;20042;-50
2022/11/07 11:44:02;;;;;;;8.85;3.20;;;14.30;99.90;;;;;;5141525;27;20062;-52
2022/11/07 11:46:39;;;;;;;11.32;3.30;;;14.30;99.90;;;;;;5126888;27;20055;-50
2022/11/07 11:49:41;;;;;;;10.25;3.25;;;14.20;99.90;;;;;;5111248;27;20439;-51
2022/11/07 11:52:16;;;;;;;12.27;3.65;;;14.20;99.90;;;;;;5129256;27;20031;-48
2022/11/07 11:54:44;;;;;;;10.45;3.47;;;14.20;99.90;;;;;;5129176;27;20133;-48
2022/11/07 11:57:12;;;;;;;13.90;3.58;;;14.20;99.90;;;;;;5126484;27;20034;-52
2022/11/07 12:00:05;;;;;;;10.15;3.10;;;14.10;99.90;;;;;;5123733;27;20074;-48
2022/11/07 12:03:01;;;;;;;13.30;3.50;;;14.00;99.90;;;;;;5123922;27;20054;-49
2022/11/07 12:05:51;;;;;;;11.57;3.28;;;14.00;99.90;;;;;;5123392;27;20046;-49
2022/11/07 12:08:35;;;;;;;13.65;3.83;;;14.00;99.90;;;;;;5126483;27;20053;-49
2022/11/07 12:11:37;;;;;;;13.35;3.72;;;14.00;99.90;;;;;;5123938;27;20039;-49
2022/11/07 12:14:24;;;;;;;12.10;3.78;;;14.00;99.90;;;;;;5121849;27;20466;-49
2022/11/07 12:16:56;;;;;;;12.35;3.78;;;14.00;99.90;;;;;;5128503;27;20354;-50
2022/11/07 12:19:50;;;;;;;10.48;3.45;;;14.00;99.90;;;;;;5124618;27;20065;-49
2022/11/07 12:22:47;;;;;;;13.23;3.70;;;14.00;99.90;;;;;;5127616;27;20057;-49
2022/11/07 12:25:18;;;;;;;13.60;3.75;;;14.00;99.90;;;;;;5124254;27;20067;-49
2022/11/07 12:28:27;;;;;;;13.27;3.92;;;14.10;99.90;;;;;;5123404;27;20062;-49
2022/11/07 12:31:27;;;;;;;12.57;4.18;;;14.20;99.90;;;;;;5125200;27;20142;-51
2022/11/07 12:34:13;;;;;;;15.30;4.63;;;14.30;99.90;;;;;;5122657;27;20110;-47
2022/11/07 12:37:07;;;;;;;13.18;3.70;;;14.30;99.90;;;;;;5110858;27;20054;-48
2022/11/07 12:39:51;;;;;;;14.55;4.35;;;14.30;99.90;;;;;;5125683;27;20057;-50
2022/11/07 12:42:24;;;;;;;;;;;14.30;99.90;;;;;;5121995;27;20035;-50
2022/11/07 12:45:13;;;;;;;11.75;3.72;;;14.20;99.90;;;;;;5116249;27;19927;-49
2022/11/07 12:47:59;;;;;;;11.77;3.90;;;14.10;99.90;;;;;;5118717;27;20043;-48
2022/11/07 12:50:44;;;;;;;13.18;4.45;;;14.10;99.90;;;;;;5125219;27;20091;-48
2022/11/07 12:53:24;;;;;;;14.75;4.93;;;14.00;99.90;;;;;;5125954;27;20046;-50
2022/11/07 12:56:02;;;;;;;15.40;4.50;;;14.10;99.90;;;;;;5127849;27;20757;-49
2022/11/07 12:58:31;;;;;;;9.93;3.92;;;14.10;99.90;;;;;;5134307;27;20043;-48
2022/11/07 13:00:57;;;;;;;12.23;3.80;;;14.00;99.90;;;;;;5134107;27;20486;-49
2022/11/07 13:03:31;;;;;;;15.02;4.47;;;14.10;99.90;;;;;;5134087;27;20371;-51
2022/11/07 13:06:02;;;;;;;11.68;4.45;;;14.20;99.90;;;;;;5138995;27;20069;-49
2022/11/07 13:08:34;;;;;;;14.32;4.53;;;14.00;99.90;;;;;;5134358;27;20043;-50